sensor_id;sensor_type;location;lat;lon;timestamp;pressure;altitude;pressure_sealevel;temperature;humidity
64189;BME280;50493;50.970;10.082;2023-04-03T00:00:05;100468.72;;;2.34;57.60
64189;BME280;50493;50.970;10.082;2023-04-03T00:02:32;100468.00;;;2.39;60.48
64189;BME280;50493;50.970;10.082;2023-04-03T00:04:57;100470.56;;;2.68;63.77
64189;BME280;50493;50.970;10.082;2023-04-03T00:07:24;100476.25;;;1.99;62.98
64189;BME280;50493;50.970;10.082;2023-04-03T00:09:49;100475.03;;;2.45;59.18
64189;BME280;50493;50.970;10.082;2023-04-03T00:12:15;100477.34;;;2.65;64.54
64189;BME280;50493;50.970;10.082;2023-04-03T00:14:40;100481.16;;;2.47;59.87
64189;BME280;50493;50.970;10.082;2023-04-03T00:17:06;100489.03;;;1.94;60.29
64189;BME280;50493;50.970;10.082;2023-04-03T00:19:31;100487.28;;;2.51;66.23
64189;BME280;50493;50.970;10.082;2023-04-03T00:21:56;100479.97;;;2.36;59.17
64189;BME280;50493;50.970;10.082;2023-04-03T00:24:24;100494.97;;;1.13;59.48
64189;BME280;50493;50.970;10.082;2023-04-03T00:26:49;100487.72;;;2.09;68.56
64189;BME280;50493;50.970;10.082;2023-04-03T00:29:14;100489.47;;;1.81;62.84
64189;BME280;50493;50.970;10.082;2023-04-03T00:31:40;100491.97;;;1.78;58.03
64189;BME280;50493;50.970;10.082;2023-04-03T00:34:05;100497.56;;;1.38;60.26
64189;BME280;50493;50.970;10.082;2023-04-03T00:36:31;100493.13;;;1.60;58.85
64189;BME280;50493;50.970;10.082;2023-04-03T00:38:56;100489.44;;;1.79;63.25
64189;BME280;50493;50.970;10.082;2023-04-03T00:41:23;100489.50;;;2.10;69.37
64189;BME280;50493;50.970;10.082;2023-04-03T00:43:48;100490.28;;;1.80;61.64
64189;BME280;50493;50.970;10.082;2023-04-03T00:46:13;100496.13;;;2.01;69.15
64189;BME280;50493;50.970;10.082;2023-04-03T00:48:40;100488.09;;;1.65;69.13
64189;BME280;50493;50.970;10.082;2023-04-03T00:51:09;100490.00;;;1.70;64.86
64189;BME280;50493;50.970;10.082;2023-04-03T00:53:40;100499.50;;;1.46;63.77
64189;BME280;50493;50.970;10.082;2023-04-03T00:56:09;100493.50;;;1.72;61.52
64189;BME280;50493;50.970;10.082;2023-04-03T00:58:40;100501.44;;;1.01;67.46
64189;BME280;50493;50.970;10.082;2023-04-03T01:01:10;100491.75;;;1.71;64.85
64189;BME280;50493;50.970;10.082;2023-04-03T01:03:37;100496.66;;;1.38;58.63
64189;BME280;50493;50.970;10.082;2023-04-03T01:06:03;100496.66;;;1.12;61.38
64189;BME280;50493;50.970;10.082;2023-04-03T01:08:29;100498.47;;;1.15;65.77
64189;BME280;50493;50.970;10.082;2023-04-03T01:10:55;100488.06;;;1.12;66.23
64189;BME280;50493;50.970;10.082;2023-04-03T01:13:23;100493.13;;;1.60;67.25
64189;BME280;50493;50.970;10.082;2023-04-03T01:15:50;100501.06;;;1.41;67.85
64189;BME280;50493;50.970;10.082;2023-04-03T01:18:16;100494.50;;;1.25;58.58
64189;BME280;50493;50.970;10.082;2023-04-03T01:26:25;100507.19;;;1.44;61.22
64189;BME280;50493;50.970;10.082;2023-04-03T01:28:53;100505.06;;;1.07;68.23
64189;BME280;50493;50.970;10.082;2023-04-03T01:31:22;100505.78;;;1.28;63.14
64189;BME280;50493;50.970;10.082;2023-04-03T01:33:52;100506.81;;;1.59;67.38
64189;BME280;50493;50.970;10.082;2023-04-03T01:36:19;100516.09;;;1.54;66.52
64189;BME280;50493;50.970;10.082;2023-04-03T01:38:46;100499.47;;;1.71;65.05
64189;BME280;50493;50.970;10.082;2023-04-03T01:41:11;100502.09;;;1.73;66.66
64189;BME280;50493;50.970;10.082;2023-04-03T01:43:37;100506.13;;;1.65;69.74
64189;BME280;50493;50.970;10.082;2023-04-03T01:46:02;100512.06;;;1.62;64.14
64189;BME280;50493;50.970;10.082;2023-04-03T01:48:27;100516.53;;;1.68;64.73
64189;BME280;50493;50.970;10.082;2023-04-03T01:50:54;100520.00;;;1.68;70.50
64189;BME280;50493;50.970;10.082;2023-04-03T01:53:20;100517.84;;;1.81;67.40
64189;BME280;50493;50.970;10.082;2023-04-03T01:55:46;100518.91;;;1.87;65.86
64189;BME280;50493;50.970;10.082;2023-04-03T01:58:11;100515.97;;;1.77;66.91
64189;BME280;50493;50.970;10.082;2023-04-03T02:00:36;100523.09;;;1.58;60.52
64189;BME280;50493;50.970;10.082;2023-04-03T02:03:02;100522.00;;;1.77;69.20
64189;BME280;50493;50.970;10.082;2023-04-03T02:05:27;100527.63;;;1.65;66.77
64189;BME280;50493;50.970;10.082;2023-04-03T02:07:54;100525.50;;;1.52;62.66
64189;BME280;50493;50.970;10.082;2023-04-03T02:10:20;100525.38;;;1.49;63.22
64189;BME280;50493;50.970;10.082;2023-04-03T02:12:45;100531.88;;;1.63;69.31
64189;BME280;50493;50.970;10.082;2023-04-03T02:15:10;100536.09;;;1.61;70.44
64189;BME280;50493;50.970;10.082;2023-04-03T02:17:36;100537.66;;;1.56;73.31
64189;BME280;50493;50.970;10.082;2023-04-03T02:20:01;100535.81;;;1.52;61.50
64189;BME280;50493;50.970;10.082;2023-04-03T02:22:28;100539.38;;;1.57;70.27
64189;BME280;50493;50.970;10.082;2023-04-03T02:24:54;100538.56;;;1.58;71.12
64189;BME280;50493;50.970;10.082;2023-04-03T02:27:20;100541.47;;;1.67;70.49
64189;BME280;50493;50.970;10.082;2023-04-03T02:29:45;100538.88;;;1.67;63.29
64189;BME280;50493;50.970;10.082;2023-04-03T02:32:11;100536.75;;;1.55;68.73
64189;BME280;50493;50.970;10.082;2023-04-03T02:34:36;100549.66;;;1.55;71.15
64189;BME280;50493;50.970;10.082;2023-04-03T02:37:01;100552.03;;;1.49;63.91
64189;BME280;50493;50.970;10.082;2023-04-03T02:39:27;100549.59;;;1.54;67.77
64189;BME280;50493;50.970;10.082;2023-04-03T02:41:53;100550.72;;;1.36;65.34
64189;BME280;50493;50.970;10.082;2023-04-03T02:44:19;100550.72;;;1.36;65.41
64189;BME280;50493;50.970;10.082;2023-04-03T02:46:44;100556.50;;;1.29;64.48
64189;BME280;50493;50.970;10.082;2023-04-03T02:49:10;100562.53;;;1.55;69.47
64189;BME280;50493;50.970;10.082;2023-04-03T02:51:35;100555.16;;;1.66;68.23
64189;BME280;50493;50.970;10.082;2023-04-03T02:54:00;100546.00;;;1.49;60.90
64189;BME280;50493;50.970;10.082;2023-04-03T02:56:26;100551.63;;;1.63;66.86
64189;BME280;50493;50.970;10.082;2023-04-03T02:58:53;100550.22;;;1.72;69.30
64189;BME280;50493;50.970;10.082;2023-04-03T03:01:19;100553.63;;;1.71;66.12
64189;BME280;50493;50.970;10.082;2023-04-03T03:03:44;100554.75;;;1.80;69.52
64189;BME280;50493;50.970;10.082;2023-04-03T03:06:12;100553.16;;;1.83;62.93
64189;BME280;50493;50.970;10.082;2023-04-03T03:08:38;100548.00;;;1.83;69.12
64189;BME280;50493;50.970;10.082;2023-04-03T03:11:04;100533.69;;;1.93;68.87
64189;BME280;50493;50.970;10.082;2023-04-03T03:13:31;100535.63;;;2.00;64.19
64189;BME280;50493;50.970;10.082;2023-04-03T03:15:57;100530.38;;;1.97;59.30
64189;BME280;50493;50.970;10.082;2023-04-03T03:18:23;100541.16;;;1.58;64.49
64189;BME280;50493;50.970;10.082;2023-04-03T03:20:50;100537.94;;;1.65;68.26
64189;BME280;50493;50.970;10.082;2023-04-03T03:23:16;100535.66;;;1.75;60.17
64189;BME280;50493;50.970;10.082;2023-04-03T03:25:41;100537.47;;;1.77;61.83
64189;BME280;50493;50.970;10.082;2023-04-03T03:28:07;100533.84;;;1.72;62.30
64189;BME280;50493;50.970;10.082;2023-04-03T03:30:33;100537.94;;;1.39;59.83
64189;BME280;50493;50.970;10.082;2023-04-03T03:32:59;100541.38;;;1.64;59.97
64189;BME280;50493;50.970;10.082;2023-04-03T03:35:25;100547.84;;;1.53;63.46
64189;BME280;50493;50.970;10.082;2023-04-03T03:37:50;100550.97;;;1.18;60.76
64189;BME280;50493;50.970;10.082;2023-04-03T03:40:16;100547.72;;;1.24;60.05
64189;BME280;50493;50.970;10.082;2023-04-03T03:42:41;100549.72;;;1.33;59.45
64189;BME280;50493;50.970;10.082;2023-04-03T03:45:08;100554.34;;;1.42;69.60
64189;BME280;50493;50.970;10.082;2023-04-03T03:47:33;100552.69;;;1.44;65.44
64189;BME280;50493;50.970;10.082;2023-04-03T03:50:00;100548.63;;;1.26;62.39
64189;BME280;50493;50.970;10.082;2023-04-03T03:52:26;100548.22;;;1.14;60.18
64189;BME280;50493;50.970;10.082;2023-04-03T03:54:51;100552.59;;;0.92;66.91
64189;BME280;50493;50.970;10.082;2023-04-03T03:57:16;100550.91;;;1.17;67.14
64189;BME280;50493;50.970;10.082;2023-04-03T03:59:42;100546.91;;;1.25;62.56
64189;BME280;50493;50.970;10.082;2023-04-03T04:02:09;100547.53;;;1.44;61.99
64189;BME280;50493;50.970;10.082;2023-04-03T04:04:34;100550.88;;;0.00;60.29
64189;BME280;50493;50.970;10.082;2023-04-03T04:07:01;100555.09;;;0.66;69.12
64189;BME280;50493;50.970;10.082;2023-04-03T04:09:26;100555.41;;;0.98;63.67
64189;BME280;50493;50.970;10.082;2023-04-03T04:11:52;100550.34;;;1.01;61.48
64189;BME280;50493;50.970;10.082;2023-04-03T04:14:17;100557.22;;;1.25;66.51
64189;BME280;50493;50.970;10.082;2023-04-03T04:16:45;100566.03;;;1.08;63.79
64189;BME280;50493;50.970;10.082;2023-04-03T04:19:10;100563.47;;;1.08;64.82
64189;BME280;50493;50.970;10.082;2023-04-03T04:21:36;100565.63;;;0.27;60.99
64189;BME280;50493;50.970;10.082;2023-04-03T04:24:03;100572.53;;;0.51;60.96
64189;BME280;50493;50.970;10.082;2023-04-03T04:26:28;100573.59;;;0.33;61.34
64189;BME280;50493;50.970;10.082;2023-04-03T04:28:53;100581.88;;;0.49;71.16
64189;BME280;50493;50.970;10.082;2023-04-03T04:31:19;100571.91;;;1.03;59.77
64189;BME280;50493;50.970;10.082;2023-04-03T04:33:44;100577.03;;;0.34;67.04
64189;BME280;50493;50.970;10.082;2023-04-03T04:36:09;100586.13;;;0.69;64.60
64189;BME280;50493;50.970;10.082;2023-04-03T04:38:35;100580.47;;;0.57;65.50
64189;BME280;50493;50.970;10.082;2023-04-03T04:41:01;100585.97;;;0.21;69.29
64189;BME280;50493;50.970;10.082;2023-04-03T04:43:27;100591.72;;;0.59;69.95
64189;BME280;50493;50.970;10.082;2023-04-03T04:46:00;100599.25;;;0.32;67.76
64189;BME280;50493;50.970;10.082;2023-04-03T04:48:26;100606.53;;;0.21;65.90
64189;BME280;50493;50.970;10.082;2023-04-03T04:50:52;100596.28;;;0.66;66.28
64189;BME280;50493;50.970;10.082;2023-04-03T04:53:17;100597.94;;;0.64;58.20
64189;BME280;50493;50.970;10.082;2023-04-03T04:55:42;100604.78;;;0.20;63.40
64189;BME280;50493;50.970;10.082;2023-04-03T04:58:09;100600.00;;;0.29;61.89
64189;BME280;50493;50.970;10.082;2023-04-03T05:00:35;100600.63;;;-0.40;63.72
64189;BME280;50493;50.970;10.082;2023-04-03T05:03:00;100601.06;;;-0.70;67.11
64189;BME280;50493;50.970;10.082;2023-04-03T05:05:26;100609.88;;;-0.43;62.26
64189;BME280;50493;50.970;10.082;2023-04-03T05:07:51;100600.28;;;-0.28;62.96
64189;BME280;50493;50.970;10.082;2023-04-03T05:10:16;100594.69;;;0.03;63.23
64189;BME280;50493;50.970;10.082;2023-04-03T05:12:42;100604.66;;;-0.04;69.97
64189;BME280;50493;50.970;10.082;2023-04-03T05:15:09;100601.72;;;0.08;65.29
64189;BME280;50493;50.970;10.082;2023-04-03T05:17:35;100605.34;;;0.13;62.54
64189;BME280;50493;50.970;10.082;2023-04-03T05:20:00;100603.06;;;0.42;66.86
64189;BME280;50493;50.970;10.082;2023-04-03T05:22:26;100616.06;;;0.02;60.65
64189;BME280;50493;50.970;10.082;2023-04-03T05:24:51;100615.81;;;0.17;71.91
64189;BME280;50493;50.970;10.082;2023-04-03T05:27:16;100617.69;;;-0.21;61.39
64189;BME280;50493;50.970;10.082;2023-04-03T05:29:42;100616.88;;;-0.60;60.83
64189;BME280;50493;50.970;10.082;2023-04-03T05:32:10;100624.84;;;-0.14;66.76
64189;BME280;50493;50.970;10.082;2023-04-03T05:34:35;100611.81;;;-0.18;69.06
64189;BME280;50493;50.970;10.082;2023-04-03T05:37:01;100634.09;;;-0.77;62.34
64189;BME280;50493;50.970;10.082;2023-04-03T05:39:28;100624.47;;;-0.02;65.10
64189;BME280;50493;50.970;10.082;2023-04-03T05:41:53;100631.56;;;-0.17;60.76
64189;BME280;50493;50.970;10.082;2023-04-03T05:44:18;100629.97;;;-0.14;64.83
64189;BME280;50493;50.970;10.082;2023-04-03T05:46:44;100634.13;;;-0.17;61.50
64189;BME280;50493;50.970;10.082;2023-04-03T05:49:11;100635.19;;;0.09;60.34
64189;BME280;50493;50.970;10.082;2023-04-03T05:51:37;100640.31;;;-0.12;59.12
64189;BME280;50493;50.970;10.082;2023-04-03T05:54:09;100639.22;;;0.02;70.72
64189;BME280;50493;50.970;10.082;2023-04-03T05:56:37;100641.59;;;0.40;67.39
64189;BME280;50493;50.970;10.082;2023-04-03T05:59:03;100645.41;;;0.29;62.53
64189;BME280;50493;50.970;10.082;2023-04-03T06:01:28;100646.41;;;0.32;58.94
64189;BME280;50493;50.970;10.082;2023-04-03T06:03:54;100651.16;;;0.65;58.14
64189;BME280;50493;50.970;10.082;2023-04-03T06:06:21;100644.72;;;0.12;66.23
64189;BME280;50493;50.970;10.082;2023-04-03T06:08:47;100656.31;;;-0.19;59.94
64189;BME280;50493;50.970;10.082;2023-04-03T06:11:12;100649.44;;;0.22;67.03
64189;BME280;50493;50.970;10.082;2023-04-03T06:13:38;100650.44;;;0.26;64.98
64189;BME280;50493;50.970;10.082;2023-04-03T06:16:04;100659.00;;;-0.16;58.99
64189;BME280;50493;50.970;10.082;2023-04-03T06:18:29;100666.16;;;-1.07;63.94
64189;BME280;50493;50.970;10.082;2023-04-03T06:20:55;100660.78;;;-0.93;67.19
64189;BME280;50493;50.970;10.082;2023-04-03T06:23:21;100650.00;;;-0.47;64.41
64189;BME280;50493;50.970;10.082;2023-04-03T06:25:47;100668.59;;;-0.72;60.75
64189;BME280;50493;50.970;10.082;2023-04-03T06:28:12;100667.00;;;-0.88;61.77
64189;BME280;50493;50.970;10.082;2023-04-03T06:30:38;100665.66;;;-1.00;64.11
64189;BME280;50493;50.970;10.082;2023-04-03T06:33:03;100675.19;;;-1.15;62.94
64189;BME280;50493;50.970;10.082;2023-04-03T06:35:29;100675.25;;;-0.37;62.13
64189;BME280;50493;50.970;10.082;2023-04-03T06:37:55;100678.50;;;-1.36;62.50
64189;BME280;50493;50.970;10.082;2023-04-03T06:40:23;100680.56;;;-1.28;64.90
64189;BME280;50493;50.970;10.082;2023-04-03T06:42:49;100682.28;;;-0.72;63.03
64189;BME280;50493;50.970;10.082;2023-04-03T06:45:16;100690.22;;;-1.05;62.60
64189;BME280;50493;50.970;10.082;2023-04-03T06:47:41;100683.88;;;-0.93;64.90
64189;BME280;50493;50.970;10.082;2023-04-03T06:50:08;100697.41;;;-1.70;63.26
64189;BME280;50493;50.970;10.082;2023-04-03T06:52:36;100697.69;;;-1.09;64.52
64189;BME280;50493;50.970;10.082;2023-04-03T06:55:02;100712.06;;;-1.67;64.88
64189;BME280;50493;50.970;10.082;2023-04-03T06:57:28;100711.50;;;-0.70;61.57
64189;BME280;50493;50.970;10.082;2023-04-03T06:59:54;100717.31;;;-1.29;62.71
64189;BME280;50493;50.970;10.082;2023-04-03T07:02:19;100722.34;;;-1.31;65.06
64189;BME280;50493;50.970;10.082;2023-04-03T07:04:45;100724.81;;;-0.96;71.62
64189;BME280;50493;50.970;10.082;2023-04-03T07:07:11;100725.03;;;-1.64;62.83
64189;BME280;50493;50.970;10.082;2023-04-03T07:09:36;100725.28;;;-0.68;61.55
64189;BME280;50493;50.970;10.082;2023-04-03T07:12:02;100727.56;;;-1.11;64.91
64189;BME280;50493;50.970;10.082;2023-04-03T07:14:28;100730.31;;;-0.89;67.78
64189;BME280;50493;50.970;10.082;2023-04-03T07:16:54;100731.69;;;-0.77;65.63
64189;BME280;50493;50.970;10.082;2023-04-03T07:19:19;100743.31;;;-1.40;62.43
64189;BME280;50493;50.970;10.082;2023-04-03T07:21:45;100729.59;;;0.12;60.28
64189;BME280;50493;50.970;10.082;2023-04-03T07:24:10;100734.53;;;1.37;58.26
64189;BME280;50493;50.970;10.082;2023-04-03T07:26:36;100729.44;;;3.48;58.46
64189;BME280;50493;50.970;10.082;2023-04-03T07:29:02;100734.72;;;3.51;49.60
64189;BME280;50493;50.970;10.082;2023-04-03T07:31:29;100727.28;;;3.62;54.52
64189;BME280;50493;50.970;10.082;2023-04-03T07:33:54;100720.09;;;4.87;50.58
64189;BME280;50493;50.970;10.082;2023-04-03T07:36:21;100718.97;;;6.50;42.99
64189;BME280;50493;50.970;10.082;2023-04-03T07:38:47;100730.31;;;6.55;47.04
64189;BME280;50493;50.970;10.082;2023-04-03T07:41:14;100733.19;;;4.93;44.05
64189;BME280;50493;50.970;10.082;2023-04-03T07:43:40;100736.53;;;5.68;43.37
64189;BME280;50493;50.970;10.082;2023-04-03T07:46:06;100744.31;;;6.13;43.00
64189;BME280;50493;50.970;10.082;2023-04-03T07:48:33;100738.41;;;6.73;44.31
64189;BME280;50493;50.970;10.082;2023-04-03T07:51:00;100739.88;;;5.61;48.27
64189;BME280;50493;50.970;10.082;2023-04-03T07:53:26;100751.44;;;5.77;45.61
64189;BME280;50493;50.970;10.082;2023-04-03T07:55:51;100749.91;;;4.69;45.25
64189;BME280;50493;50.970;10.082;2023-04-03T07:58:20;100754.88;;;3.63;53.19
64189;BME280;50493;50.970;10.082;2023-04-03T08:00:46;100745.25;;;3.58;48.47
64189;BME280;50493;50.970;10.082;2023-04-03T08:03:13;100737.19;;;4.44;53.59
64189;BME280;50493;50.970;10.082;2023-04-03T08:05:41;100749.00;;;4.32;54.68
64189;BME280;50493;50.970;10.082;2023-04-03T08:08:08;100752.25;;;4.25;58.14
64189;BME280;50493;50.970;10.082;2023-04-03T08:10:34;100757.81;;;3.16;47.38
64189;BME280;50493;50.970;10.082;2023-04-03T08:13:00;100764.25;;;3.01;58.61
64189;BME280;50493;50.970;10.082;2023-04-03T08:15:26;100770.50;;;1.81;53.67
64189;BME280;50493;50.970;10.082;2023-04-03T08:17:52;100776.44;;;2.52;57.91
64189;BME280;50493;50.970;10.082;2023-04-03T08:20:17;100769.50;;;2.26;55.20
64189;BME280;50493;50.970;10.082;2023-04-03T08:22:44;100768.31;;;3.22;46.57
64189;BME280;50493;50.970;10.082;2023-04-03T08:25:09;100754.78;;;3.29;44.94
64189;BME280;50493;50.970;10.082;2023-04-03T08:27:35;100762.84;;;3.40;45.04
64189;BME280;50493;50.970;10.082;2023-04-03T08:30:00;100752.19;;;6.66;44.64
64189;BME280;50493;50.970;10.082;2023-04-03T08:32:26;100756.72;;;7.38;39.54
64189;BME280;50493;50.970;10.082;2023-04-03T08:34:52;100756.56;;;7.27;46.14
64189;BME280;50493;50.970;10.082;2023-04-03T08:37:18;100755.34;;;6.50;41.84
64189;BME280;50493;50.970;10.082;2023-04-03T08:39:45;100754.66;;;5.25;41.71
64189;BME280;50493;50.970;10.082;2023-04-03T08:42:16;100771.50;;;2.60;42.86
64189;BME280;50493;50.970;10.082;2023-04-03T08:44:47;100766.00;;;3.90;46.59
64189;BME280;50493;50.970;10.082;2023-04-03T08:47:19;100764.84;;;3.50;41.64
64189;BME280;50493;50.970;10.082;2023-04-03T08:49:52;100758.13;;;3.55;42.15
64189;BME280;50493;50.970;10.082;2023-04-03T08:52:20;100758.81;;;3.50;45.33
64189;BME280;50493;50.970;10.082;2023-04-03T08:54:53;100765.91;;;2.99;43.72
64189;BME280;50493;50.970;10.082;2023-04-03T08:57:20;100745.84;;;5.17;44.27
64189;BME280;50493;50.970;10.082;2023-04-03T08:59:50;100745.63;;;6.93;38.39
64189;BME280;50493;50.970;10.082;2023-04-03T09:02:25;100750.50;;;6.19;36.39
64189;BME280;50493;50.970;10.082;2023-04-03T09:04:52;100735.38;;;7.02;36.30
64189;BME280;50493;50.970;10.082;2023-04-03T09:07:23;100756.06;;;6.39;40.93
64189;BME280;50493;50.970;10.082;2023-04-03T09:09:52;100753.78;;;6.58;43.68
64189;BME280;50493;50.970;10.082;2023-04-03T09:12:22;100762.53;;;5.30;43.74
64189;BME280;50493;50.970;10.082;2023-04-03T09:14:57;100762.03;;;4.37;39.88
64189;BME280;50493;50.970;10.082;2023-04-03T09:17:36;100758.22;;;4.22;52.58
64189;BME280;50493;50.970;10.082;2023-04-03T09:20:14;100748.75;;;4.56;51.27
64189;BME280;50493;50.970;10.082;2023-04-03T09:22:43;100753.44;;;5.90;46.02
64189;BME280;50493;50.970;10.082;2023-04-03T09:25:13;100746.81;;;6.55;46.31
64189;BME280;50493;50.970;10.082;2023-04-03T09:27:40;100771.50;;;5.86;37.84
64189;BME280;50493;50.970;10.082;2023-04-03T09:30:13;100753.59;;;4.79;38.58
64189;BME280;50493;50.970;10.082;2023-04-03T09:32:39;100737.84;;;5.08;39.23
64189;BME280;50493;50.970;10.082;2023-04-03T09:35:16;100744.97;;;4.44;38.46
64189;BME280;50493;50.970;10.082;2023-04-03T09:37:45;100748.81;;;5.36;44.26
64189;BME280;50493;50.970;10.082;2023-04-03T09:40:34;100746.81;;;4.84;42.73
64189;BME280;50493;50.970;10.082;2023-04-03T09:43:01;100745.41;;;4.27;41.36
64189;BME280;50493;50.970;10.082;2023-04-03T09:45:29;100735.97;;;5.40;39.01
64189;BME280;50493;50.970;10.082;2023-04-03T09:48:08;100732.56;;;5.86;52.04
64189;BME280;50493;50.970;10.082;2023-04-03T09:50:53;100731.34;;;7.23;43.26
64189;BME280;50493;50.970;10.082;2023-04-03T09:53:27;100728.63;;;7.81;42.02
64189;BME280;50493;50.970;10.082;2023-04-03T09:55:54;100731.69;;;8.26;42.51
64189;BME280;50493;50.970;10.082;2023-04-03T09:58:26;100729.66;;;6.68;34.89
64189;BME280;50493;50.970;10.082;2023-04-03T10:00:57;100736.09;;;7.55;39.07
64189;BME280;50493;50.970;10.082;2023-04-03T10:03:26;100721.09;;;5.73;40.06
64189;BME280;50493;50.970;10.082;2023-04-03T10:05:52;100734.25;;;5.01;42.80
64189;BME280;50493;50.970;10.082;2023-04-03T10:08:22;100759.69;;;3.81;39.07
64189;BME280;50493;50.970;10.082;2023-04-03T10:11:10;100733.22;;;4.23;43.70
64189;BME280;50493;50.970;10.082;2023-04-03T10:13:36;100717.91;;;6.92;43.35
64189;BME280;50493;50.970;10.082;2023-04-03T10:16:17;100713.94;;;6.08;52.14
64189;BME280;50493;50.970;10.082;2023-04-03T10:18:46;100718.88;;;5.93;52.82
64189;BME280;50493;50.970;10.082;2023-04-03T10:21:19;100722.69;;;4.17;42.07
64189;BME280;50493;50.970;10.082;2023-04-03T10:23:54;100714.13;;;5.70;55.85
64189;BME280;50493;50.970;10.082;2023-04-03T10:26:31;100726.50;;;5.84;44.21
64189;BME280;50493;50.970;10.082;2023-04-03T10:29:02;100714.16;;;5.73;42.74
64189;BME280;50493;50.970;10.082;2023-04-03T10:31:36;100718.25;;;5.21;44.33
64189;BME280;50493;50.970;10.082;2023-04-03T10:34:05;100731.81;;;3.11;40.48
64189;BME280;50493;50.970;10.082;2023-04-03T10:36:37;100720.97;;;4.16;42.84
64189;BME280;50493;50.970;10.082;2023-04-03T10:39:15;100699.91;;;3.70;42.38
64189;BME280;50493;50.970;10.082;2023-04-03T10:41:51;100711.31;;;3.77;47.07
64189;BME280;50493;50.970;10.082;2023-04-03T10:44:29;100712.91;;;5.53;40.61
64189;BME280;50493;50.970;10.082;2023-04-03T10:47:02;100678.34;;;7.15;40.27
64189;BME280;50493;50.970;10.082;2023-04-03T10:49:39;100684.41;;;6.02;48.84
64189;BME280;50493;50.970;10.082;2023-04-03T10:52:14;100694.84;;;6.57;37.78
64189;BME280;50493;50.970;10.082;2023-04-03T10:54:46;100690.88;;;6.82;43.25
64189;BME280;50493;50.970;10.082;2023-04-03T10:57:16;100683.31;;;4.65;56.55
64189;BME280;50493;50.970;10.082;2023-04-03T10:59:45;100677.66;;;6.12;43.83
64189;BME280;50493;50.970;10.082;2023-04-03T11:02:17;100684.66;;;5.25;37.90
64189;BME280;50493;50.970;10.082;2023-04-03T11:04:48;100685.22;;;5.99;38.23
64189;BME280;50493;50.970;10.082;2023-04-03T11:07:18;100690.63;;;6.12;40.27
64189;BME280;50493;50.970;10.082;2023-04-03T11:09:48;100698.13;;;7.02;37.23
64189;BME280;50493;50.970;10.082;2023-04-03T11:12:19;100666.59;;;6.77;43.95
64189;BME280;50493;50.970;10.082;2023-04-03T11:14:47;100671.28;;;7.04;54.42
64189;BME280;50493;50.970;10.082;2023-04-03T11:17:21;100668.78;;;5.99;37.72
64189;BME280;50493;50.970;10.082;2023-04-03T11:19:52;100664.41;;;7.83;54.93
64189;BME280;50493;50.970;10.082;2023-04-03T11:22:24;100664.13;;;8.51;35.93
64189;BME280;50493;50.970;10.082;2023-04-03T11:24:59;100644.38;;;7.74;38.33
64189;BME280;50493;50.970;10.082;2023-04-03T11:27:30;100671.19;;;4.64;39.28
64189;BME280;50493;50.970;10.082;2023-04-03T11:30:00;100665.59;;;5.65;38.43
64189;BME280;50493;50.970;10.082;2023-04-03T11:32:49;100667.28;;;5.64;39.41
64189;BME280;50493;50.970;10.082;2023-04-03T11:35:17;100666.91;;;3.93;39.08
64189;BME280;50493;50.970;10.082;2023-04-03T11:37:45;100671.88;;;4.93;39.74
64189;BME280;50493;50.970;10.082;2023-04-03T11:40:22;100652.13;;;5.86;41.88
64189;BME280;50493;50.970;10.082;2023-04-03T11:42:52;100650.44;;;6.41;52.33
64189;BME280;50493;50.970;10.082;2023-04-03T11:45:31;100653.03;;;6.41;60.61
64189;BME280;50493;50.970;10.082;2023-04-03T11:47:58;100655.50;;;4.56;39.77
64189;BME280;50493;50.970;10.082;2023-04-03T11:50:39;100668.34;;;3.21;41.20
64189;BME280;50493;50.970;10.082;2023-04-03T11:53:26;100668.34;;;2.63;43.67
64189;BME280;50493;50.970;10.082;2023-04-03T11:59:21;100662.00;;;2.81;44.42
64189;BME280;50493;50.970;10.082;2023-04-03T12:01:48;100647.75;;;3.54;51.44
64189;BME280;50493;50.970;10.082;2023-04-03T12:04:15;100650.34;;;4.96;46.81
64189;BME280;50493;50.970;10.082;2023-04-03T12:06:53;100648.81;;;4.28;41.18
64189;BME280;50493;50.970;10.082;2023-04-03T12:09:27;100639.59;;;5.63;45.13
64189;BME280;50493;50.970;10.082;2023-04-03T12:11:53;100634.53;;;5.69;43.87
64189;BME280;50493;50.970;10.082;2023-04-03T12:14:23;100641.06;;;5.49;41.31
64189;BME280;50493;50.970;10.082;2023-04-03T12:16:52;100638.50;;;5.50;38.17
64189;BME280;50493;50.970;10.082;2023-04-03T12:19:31;100636.34;;;5.31;43.94
64189;BME280;50493;50.970;10.082;2023-04-03T12:22:14;100630.22;;;6.22;42.09
64189;BME280;50493;50.970;10.082;2023-04-03T12:24:42;100618.47;;;5.90;44.10
64189;BME280;50493;50.970;10.082;2023-04-03T12:27:21;100621.50;;;6.17;42.16
64189;BME280;50493;50.970;10.082;2023-04-03T12:29:54;100616.63;;;6.38;44.70
64189;BME280;50493;50.970;10.082;2023-04-03T12:32:31;100616.97;;;6.06;44.22
64189;BME280;50493;50.970;10.082;2023-04-03T12:35:08;100621.81;;;5.85;40.54
64189;BME280;50493;50.970;10.082;2023-04-03T12:38:02;100618.09;;;6.21;38.33
64189;BME280;50493;50.970;10.082;2023-04-03T12:40:39;100610.97;;;4.73;41.18
64189;BME280;50493;50.970;10.082;2023-04-03T12:43:20;100605.88;;;6.14;38.99
64189;BME280;50493;50.970;10.082;2023-04-03T12:46:00;100593.28;;;7.03;41.75
64189;BME280;50493;50.970;10.082;2023-04-03T12:48:29;100593.19;;;7.75;39.04
64189;BME280;50493;50.970;10.082;2023-04-03T12:50:56;100590.78;;;7.95;34.60
64189;BME280;50493;50.970;10.082;2023-04-03T12:53:24;100590.94;;;8.20;44.47
64189;BME280;50493;50.970;10.082;2023-04-03T12:55:53;100585.72;;;8.17;38.78
64189;BME280;50493;50.970;10.082;2023-04-03T12:58:22;100580.47;;;8.10;45.52
64189;BME280;50493;50.970;10.082;2023-04-03T13:00:59;100585.47;;;7.83;36.60